Time;durP1;ratioP1;P1;durP2;ratioP2;P2;SDS_P1;SDS_P2;PMS_P1;PMS_P2;Temp;Humidity;BMP_temperature;BMP_pressure;BME280_temperature;BME280_humidity;BME280_pressure;Samples;Min_cycle;Max_cycle;Signal;HPM_P1;HPM_P2
2021/03/22 00:01:08;;;;;;;7.88;1.73;;;5.30;99.90;;;;;;5086733;28;20031;-74
2021/03/22 00:03:33;;;;;;;5.53;1.48;;;5.20;99.90;;;;;;5080882;28;20052;-77
2021/03/22 00:06:00;;;;;;;9.43;2.53;;;5.20;99.90;;;;;;5081903;28;20021;-75
2021/03/22 00:08:26;;;;;;;8.18;1.83;;;5.20;99.90;;;;;;5065067;28;20041;-74
2021/03/22 00:10:52;;;;;;;14.38;2.13;;;5.20;99.90;;;;;;5081765;28;20029;-75
2021/03/22 00:13:19;;;;;;;13.45;1.58;;;5.20;99.90;;;;;;5066446;28;20059;-75
2021/03/22 00:15:47;;;;;;;8.10;1.40;;;5.20;99.90;;;;;;5066567;28;20021;-76
2021/03/22 00:18:19;;;;;;;14.73;1.92;;;5.20;99.90;;;;;;5065554;28;20028;-78
2021/03/22 00:20:46;;;;;;;9.13;1.70;;;5.20;99.90;;;;;;5066074;28;20120;-74
2021/03/22 00:23:13;;;;;;;6.32;1.42;;;5.20;99.90;;;;;;5067451;28;20048;-76
2021/03/22 00:25:38;;;;;;;11.30;1.95;;;5.20;99.90;;;;;;5085023;28;20042;-75
2021/03/22 00:28:05;;;;;;;9.55;1.98;;;5.30;99.90;;;;;;5084546;28;20392;-75
2021/03/22 00:30:34;;;;;;;8.35;2.20;;;5.30;99.90;;;;;;5084850;28;20107;-74
2021/03/22 00:33:00;;;;;;;24.13;2.13;;;5.30;99.90;;;;;;5086085;28;20050;-75
2021/03/22 00:35:26;;;;;;;8.27;1.80;;;5.30;99.90;;;;;;5085813;28;20051;-75
2021/03/22 00:37:53;;;;;;;9.77;1.88;;;5.30;99.90;;;;;;5086131;28;20021;-76
2021/03/22 00:40:23;;;;;;;5.07;2.15;;;5.30;99.90;;;;;;5081687;28;20029;-75
2021/03/22 00:42:49;;;;;;;10.23;2.00;;;5.30;99.90;;;;;;5066011;28;20037;-76
2021/03/22 00:45:16;;;;;;;6.57;2.03;;;5.30;99.90;;;;;;5081536;28;20057;-75
2021/03/22 00:47:41;;;;;;;13.75;1.90;;;5.30;99.90;;;;;;5081151;28;20033;-74
2021/03/22 00:50:10;;;;;;;16.35;2.50;;;5.30;99.90;;;;;;5065582;28;20052;-74
2021/03/22 00:52:35;;;;;;;8.77;1.90;;;5.30;99.90;;;;;;5064304;28;20097;-72
2021/03/22 00:55:01;;;;;;;10.90;2.53;;;5.40;99.90;;;;;;5065396;28;20037;-75
2021/03/22 00:57:26;;;;;;;6.45;1.75;;;5.30;99.90;;;;;;5065546;28;20028;-75
2021/03/22 00:59:52;;;;;;;8.93;2.15;;;5.30;99.90;;;;;;5064196;28;20025;-73
2021/03/22 01:02:18;;;;;;;11.43;1.83;;;5.40;99.90;;;;;;5064886;28;20055;-77
2021/03/22 01:04:43;;;;;;;19.98;1.50;;;5.30;99.90;;;;;;5080797;28;20037;-75
2021/03/22 01:07:10;;;;;;;8.85;2.25;;;5.30;99.90;;;;;;5065478;28;20051;-74
2021/03/22 01:09:36;;;;;;;11.10;1.60;;;5.30;99.90;;;;;;5063707;28;20057;-74
2021/03/22 01:12:01;;;;;;;21.55;2.60;;;5.40;99.90;;;;;;5063966;28;20100;-74
2021/03/22 01:14:27;;;;;;;13.63;2.45;;;5.30;99.90;;;;;;5065151;28;20029;-74
2021/03/22 01:16:53;;;;;;;9.60;1.67;;;5.30;99.90;;;;;;5080571;28;20093;-75
2021/03/22 01:19:26;;;;;;;11.23;2.15;;;5.30;99.90;;;;;;5063507;28;20044;-77
2021/03/22 01:21:57;;;;;;;11.88;2.63;;;5.30;99.90;;;;;;5065370;28;20021;-75
2021/03/22 01:24:26;;;;;;;19.13;3.15;;;5.30;99.90;;;;;;5065094;28;20094;-76
2021/03/22 01:26:55;;;;;;;16.10;2.65;;;5.20;99.90;;;;;;5065202;28;20466;-74
2021/03/22 01:29:42;;;;;;;11.52;2.38;;;5.20;99.90;;;;;;5064977;28;20041;-76
2021/03/22 01:32:11;;;;;;;15.98;3.60;;;5.20;99.90;;;;;;5064825;28;20036;-74
2021/03/22 01:34:37;;;;;;;12.00;2.05;;;5.10;99.90;;;;;;5080077;28;20029;-75
2021/03/22 01:37:04;;;;;;;9.32;2.22;;;5.10;99.90;;;;;;5080305;28;20020;-73
2021/03/22 01:39:34;;;;;;;8.60;1.85;;;5.10;99.90;;;;;;5064741;28;20052;-73
2021/03/22 01:42:24;;;;;;;6.80;3.33;;;5.10;99.90;;;;;;5064853;28;20021;-74
2021/03/22 01:44:59;;;;;;;7.20;1.80;;;5.10;99.90;;;;;;5064927;28;20019;-74
2021/03/22 01:47:31;;;;;;;16.80;1.67;;;5.10;99.90;;;;;;5080440;28;20039;-74
2021/03/22 01:50:08;;;;;;;7.43;2.67;;;5.10;99.90;;;;;;5080101;28;20100;-76
2021/03/22 01:52:38;;;;;;;8.02;2.08;;;5.10;99.90;;;;;;5064646;28;20032;-72
2021/03/22 01:55:06;;;;;;;14.68;3.55;;;5.10;99.90;;;;;;5064545;28;20028;-73
2021/03/22 01:57:32;;;;;;;13.75;2.15;;;5.10;99.90;;;;;;5064681;28;20047;-74
2021/03/22 02:00:07;;;;;;;5.72;1.60;;;5.20;99.90;;;;;;5064489;28;20025;-76
2021/03/22 02:02:35;;;;;;;5.60;1.42;;;5.10;99.90;;;;;;5064576;28;20078;-72
2021/03/22 02:05:02;;;;;;;4.80;1.92;;;5.10;99.90;;;;;;5064477;28;20055;-75
2021/03/22 02:07:30;;;;;;;14.20;3.95;;;5.10;99.90;;;;;;5064553;28;20047;-74
2021/03/22 02:09:56;;;;;;;17.55;3.50;;;5.20;99.90;;;;;;5064119;28;20037;-76
2021/03/22 02:12:23;;;;;;;8.23;2.05;;;5.10;99.90;;;;;;5065406;28;20035;-75
2021/03/22 02:14:51;;;;;;;3.65;2.25;;;5.20;99.90;;;;;;5068481;28;20033;-75
2021/03/22 02:17:36;;;;;;;9.25;1.98;;;5.20;99.90;;;;;;5067561;28;20029;-75
2021/03/22 02:20:17;;;;;;;5.82;1.60;;;5.20;99.90;;;;;;5067407;28;20139;-73
2021/03/22 02:23:20;;;;;;;11.52;1.83;;;5.20;99.90;;;;;;5084239;28;20021;-74
2021/03/22 02:26:17;;;;;;;8.05;2.13;;;5.20;99.90;;;;;;5068691;28;20089;-74
2021/03/22 02:28:53;;;;;;;5.53;2.03;;;5.20;99.90;;;;;;5068405;28;20029;-73
2021/03/22 02:31:28;;;;;;;6.78;2.22;;;5.20;99.90;;;;;;5068350;28;20026;-74
2021/03/22 02:34:06;;;;;;;11.23;2.80;;;5.20;99.90;;;;;;5067851;28;20035;-75
2021/03/22 02:36:42;;;;;;;17.27;2.22;;;5.20;99.90;;;;;;5083474;28;20017;-73
2021/03/22 02:39:08;;;;;;;14.25;2.58;;;5.20;99.90;;;;;;5068314;28;20055;-75
2021/03/22 02:41:52;;;;;;;13.52;2.85;;;5.10;99.90;;;;;;5066682;28;20036;-77
2021/03/22 02:44:24;;;;;;;21.85;2.50;;;5.10;99.90;;;;;;5068444;28;20052;-74
2021/03/22 02:46:56;;;;;;;21.25;3.28;;;5.10;99.90;;;;;;5068073;28;20117;-75
2021/03/22 02:49:23;;;;;;;12.20;2.72;;;5.10;99.90;;;;;;5074712;28;20070;-77
2021/03/22 02:52:27;;;;;;;18.05;2.00;;;5.00;99.90;;;;;;5083405;28;20032;-73
2021/03/22 02:55:27;;;;;;;15.07;2.08;;;4.90;99.90;;;;;;5066520;28;20417;-74
2021/03/22 02:57:58;;;;;;;6.13;2.15;;;4.90;99.90;;;;;;5031364;28;20083;-75
2021/03/22 03:00:41;;;;;;;11.65;3.10;;;4.90;99.90;;;;;;5068248;28;20025;-73
2021/03/22 03:03:10;;;;;;;17.67;3.00;;;5.00;99.90;;;;;;5087800;28;20040;-74
2021/03/22 03:05:37;;;;;;;3.38;1.30;;;5.00;99.90;;;;;;5087313;28;20036;-74
2021/03/22 03:08:12;;;;;;;9.05;2.63;;;5.00;99.90;;;;;;5087623;28;20020;-74
2021/03/22 03:10:38;;;;;;;10.88;3.33;;;5.00;99.90;;;;;;5086481;28;20024;-74
2021/03/22 03:13:04;;;;;;;8.55;1.63;;;5.00;99.90;;;;;;5083055;28;20045;-74
2021/03/22 03:15:30;;;;;;;6.30;2.25;;;5.00;99.90;;;;;;5082998;28;20025;-73
2021/03/22 03:17:56;;;;;;;15.32;3.00;;;5.00;99.90;;;;;;5082905;28;20029;-74
2021/03/22 03:20:30;;;;;;;5.32;2.53;;;5.00;99.90;;;;;;5067166;28;20535;-73
2021/03/22 03:22:58;;;;;;;10.27;2.83;;;5.10;99.90;;;;;;5067406;28;20032;-74
2021/03/22 03:25:26;;;;;;;12.85;3.25;;;5.10;99.90;;;;;;5081959;28;20033;-74
2021/03/22 03:27:52;;;;;;;9.48;2.78;;;5.10;99.90;;;;;;5067104;28;20036;-74
2021/03/22 03:30:31;;;;;;;6.30;2.10;;;5.10;99.90;;;;;;5067147;28;20028;-74
2021/03/22 03:32:59;;;;;;;8.35;2.00;;;5.10;99.90;;;;;;5067128;28;20033;-75
2021/03/22 03:35:29;;;;;;;9.55;3.13;;;5.10;99.90;;;;;;5067051;28;20085;-74
2021/03/22 03:37:55;;;;;;;10.68;2.15;;;5.10;99.90;;;;;;5083210;28;20033;-74
2021/03/22 03:40:37;;;;;;;10.40;2.33;;;5.10;99.90;;;;;;5087256;28;20024;-74
2021/03/22 03:43:03;;;;;;;7.35;3.15;;;5.10;99.90;;;;;;5086897;28;20036;-74
2021/03/22 03:45:31;;;;;;;10.88;3.85;;;5.20;99.90;;;;;;5087060;28;20035;-74
2021/03/22 03:47:57;;;;;;;19.70;3.90;;;5.10;99.90;;;;;;5085648;28;20036;-74
2021/03/22 03:50:27;;;;;;;3.20;1.73;;;5.10;99.90;;;;;;5086945;28;20028;-75
2021/03/22 03:52:55;;;;;;;15.63;3.08;;;5.10;99.90;;;;;;5086890;28;20028;-74
2021/03/22 03:55:25;;;;;;;20.17;3.63;;;5.10;99.90;;;;;;5086924;28;20024;-74
2021/03/22 03:57:52;;;;;;;5.90;2.38;;;5.10;99.90;;;;;;5086789;28;20031;-74
2021/03/22 04:00:28;;;;;;;7.15;2.17;;;5.10;99.90;;;;;;5086873;28;20020;-75
2021/03/22 04:02:56;;;;;;;8.13;2.72;;;5.20;99.90;;;;;;5087117;28;20419;-75
2021/03/22 04:05:24;;;;;;;4.82;2.53;;;5.20;99.90;;;;;;5086636;28;20108;-75
2021/03/22 04:07:49;;;;;;;22.00;2.97;;;5.20;99.90;;;;;;5086472;28;20066;-76
2021/03/22 04:10:16;;;;;;;13.32;2.25;;;5.20;99.90;;;;;;5086743;28;20063;-74
2021/03/22 04:12:43;;;;;;;10.43;3.15;;;5.30;99.90;;;;;;5085205;28;20039;-74
2021/03/22 04:15:12;;;;;;;5.78;1.95;;;5.10;99.90;;;;;;5084913;28;20037;-74
2021/03/22 04:17:37;;;;;;;14.25;2.90;;;5.10;99.90;;;;;;5085089;28;20534;-74
2021/03/22 04:20:04;;;;;;;5.93;1.48;;;5.10;99.90;;;;;;5085626;28;20052;-74
2021/03/22 04:22:30;;;;;;;8.18;2.03;;;5.10;99.90;;;;;;5086446;28;20092;-75
2021/03/22 04:24:55;;;;;;;7.30;1.98;;;5.00;99.90;;;;;;5069003;28;20032;-75
2021/03/22 04:27:21;;;;;;;4.25;1.48;;;5.10;99.90;;;;;;5081657;28;20028;-78
2021/03/22 04:29:47;;;;;;;11.32;2.63;;;5.00;99.90;;;;;;5081464;28;20033;-76
2021/03/22 04:32:13;;;;;;;3.33;1.70;;;5.00;99.90;;;;;;5066153;28;20053;-76
2021/03/22 04:34:39;;;;;;;15.20;1.90;;;5.10;99.90;;;;;;5065952;28;20104;-75
2021/03/22 04:37:05;;;;;;;8.68;1.83;;;5.00;99.90;;;;;;5063705;28;20053;-74
2021/03/22 04:39:30;;;;;;;5.55;1.95;;;5.00;99.90;;;;;;5065914;28;20050;-75
2021/03/22 04:41:56;;;;;;;6.70;2.20;;;5.10;99.90;;;;;;5065920;28;20025;-74
2021/03/22 04:44:22;;;;;;;15.25;2.22;;;5.00;99.90;;;;;;5064519;28;20071;-75
2021/03/22 04:46:50;;;;;;;5.32;1.27;;;5.00;99.90;;;;;;5081253;28;20029;-75
2021/03/22 04:49:16;;;;;;;12.20;2.33;;;5.00;99.90;;;;;;5064485;28;20051;-75
2021/03/22 04:51:42;;;;;;;9.27;2.10;;;5.00;99.90;;;;;;5064488;28;20064;-74
2021/03/22 04:54:08;;;;;;;8.85;1.83;;;5.00;99.90;;;;;;5065663;28;20040;-74
2021/03/22 04:56:34;;;;;;;5.70;1.95;;;5.00;99.90;;;;;;5065643;28;20032;-75
2021/03/22 04:59:00;;;;;;;16.27;2.08;;;5.00;99.90;;;;;;5065394;28;20040;-74
2021/03/22 05:01:26;;;;;;;3.38;1.58;;;5.00;99.90;;;;;;5065711;28;20033;-74
2021/03/22 05:03:54;;;;;;;7.57;1.00;;;5.10;99.90;;;;;;5065517;28;20017;-74
2021/03/22 05:06:20;;;;;;;5.13;1.92;;;5.10;99.90;;;;;;5065273;28;20029;-74
2021/03/22 05:08:49;;;;;;;7.53;2.00;;;5.10;99.90;;;;;;5065631;28;20428;-75
2021/03/22 05:11:17;;;;;;;9.70;1.77;;;5.10;99.90;;;;;;5080707;28;20021;-73
2021/03/22 05:13:45;;;;;;;3.83;1.38;;;5.20;99.90;;;;;;5065572;28;20382;-73
2021/03/22 05:16:13;;;;;;;3.55;1.58;;;5.20;99.90;;;;;;5065176;28;20527;-74
2021/03/22 05:18:39;;;;;;;4.38;1.77;;;5.20;99.90;;;;;;5065228;28;20021;-73
2021/03/22 05:21:07;;;;;;;7.35;1.50;;;5.20;99.90;;;;;;5065033;28;20063;-73
2021/03/22 05:23:34;;;;;;;7.75;2.95;;;5.20;99.90;;;;;;5065082;28;20037;-74
2021/03/22 05:26:00;;;;;;;4.30;2.25;;;5.20;99.90;;;;;;5065002;28;20535;-74
2021/03/22 05:28:28;;;;;;;3.78;1.17;;;5.20;99.90;;;;;;5065063;28;20021;-75
2021/03/22 05:30:55;;;;;;;10.00;3.00;;;5.20;99.90;;;;;;5064988;28;20539;-74
2021/03/22 05:33:23;;;;;;;9.48;2.42;;;5.30;99.90;;;;;;5064922;28;20036;-73
2021/03/22 05:35:51;;;;;;;6.70;2.42;;;5.20;99.90;;;;;;5064860;28;20029;-74
2021/03/22 05:38:18;;;;;;;5.03;2.13;;;5.20;99.90;;;;;;5064975;28;20025;-73
2021/03/22 05:40:54;;;;;;;5.47;1.77;;;5.30;99.90;;;;;;5080270;28;20085;-73
2021/03/22 05:43:42;;;;;;;12.55;3.00;;;5.30;99.90;;;;;;5065123;28;20417;-74
2021/03/22 05:46:22;;;;;;;5.70;1.38;;;5.30;99.90;;;;;;5064467;28;20025;-73
2021/03/22 05:49:18;;;;;;;3.95;1.63;;;5.30;99.90;;;;;;5064298;28;20033;-74
2021/03/22 05:51:59;;;;;;;6.18;1.83;;;5.30;99.90;;;;;;5064281;28;20045;-74
2021/03/22 05:54:52;;;;;;;7.00;1.38;;;5.30;99.90;;;;;;5064585;28;20029;-75
2021/03/22 05:57:30;;;;;;;5.93;1.80;;;5.30;99.90;;;;;;5064653;28;20028;-74
2021/03/22 06:00:17;;;;;;;7.68;2.05;;;5.40;99.90;;;;;;5064479;28;20158;-74
2021/03/22 06:03:17;;;;;;;4.53;1.50;;;5.40;99.90;;;;;;5079890;28;20063;-74
2021/03/22 06:06:21;;;;;;;9.45;2.65;;;5.40;99.90;;;;;;5064363;28;20037;-75
2021/03/22 06:09:14;;;;;;;5.80;1.63;;;5.50;99.90;;;;;;5064101;28;20498;-75
2021/03/22 06:11:52;;;;;;;8.50;2.53;;;5.50;99.90;;;;;;5079254;28;20029;-73
2021/03/22 06:14:21;;;;;;;6.88;2.30;;;5.50;99.90;;;;;;5064328;28;20021;-74
2021/03/22 06:16:56;;;;;;;5.43;1.63;;;5.50;99.90;;;;;;5064310;28;20033;-74
2021/03/22 06:19:22;;;;;;;8.52;2.45;;;5.50;99.90;;;;;;5078936;28;20060;-74
2021/03/22 06:21:49;;;;;;;11.10;1.90;;;5.50;99.90;;;;;;5063934;28;20029;-74
2021/03/22 06:24:23;;;;;;;5.32;1.33;;;5.60;99.90;;;;;;5062598;28;20029;-74
2021/03/22 06:26:51;;;;;;;8.32;1.67;;;5.60;99.90;;;;;;5064021;28;20404;-74
2021/03/22 06:29:25;;;;;;;5.28;1.55;;;5.60;99.90;;;;;;5079137;28;20037;-76
2021/03/22 06:31:54;;;;;;;6.13;2.67;;;5.60;99.90;;;;;;5065974;28;20032;-73
2021/03/22 06:34:30;;;;;;;8.27;1.23;;;5.60;99.90;;;;;;5070770;28;20530;-75
2021/03/22 06:36:55;;;;;;;2.67;1.00;;;5.70;99.90;;;;;;5072315;28;20400;-73
2021/03/22 06:39:23;;;;;;;6.68;1.27;;;5.70;99.90;;;;;;5075401;28;20032;-73
2021/03/22 06:41:53;;;;;;;5.22;0.98;;;5.70;99.90;;;;;;5079076;28;20021;-74
2021/03/22 06:44:32;;;;;;;2.88;0.63;;;5.80;99.90;;;;;;5081957;28;20029;-75
2021/03/22 06:47:10;;;;;;;9.52;1.10;;;5.80;99.90;;;;;;5072344;28;20032;-73
2021/03/22 06:49:38;;;;;;;9.15;1.63;;;5.80;99.90;;;;;;5071797;28;20040;-74
2021/03/22 06:52:06;;;;;;;3.92;1.27;;;6.00;99.90;;;;;;5076852;28;20056;-75
2021/03/22 06:54:52;;;;;;;7.50;1.65;;;5.90;99.90;;;;;;5067146;28;20028;-73
2021/03/22 06:57:28;;;;;;;2.60;1.10;;;5.90;99.90;;;;;;5069510;28;20031;-74
2021/03/22 07:00:21;;;;;;;2.55;1.33;;;5.90;99.90;;;;;;5084143;28;20033;-73
2021/03/22 07:02:50;;;;;;;4.90;1.63;;;5.90;99.90;;;;;;5068905;28;20033;-74
2021/03/22 07:05:28;;;;;;;3.38;1.63;;;5.90;99.90;;;;;;5067532;28;20025;-74
2021/03/22 07:08:01;;;;;;;5.03;1.48;;;6.00;99.90;;;;;;5066770;28;20052;-74
2021/03/22 07:10:54;;;;;;;4.45;1.25;;;6.00;99.90;;;;;;5067177;28;20112;-74
2021/03/22 07:13:37;;;;;;;2.15;1.15;;;6.10;99.90;;;;;;5066544;28;20022;-74
2021/03/22 07:16:16;;;;;;;6.85;0.80;;;6.10;99.90;;;;;;5067208;28;20025;-74
2021/03/22 07:19:02;;;;;;;2.47;0.73;;;6.10;99.90;;;;;;5067250;28;20021;-75
2021/03/22 07:21:27;;;;;;;1.02;0.52;;;6.20;99.90;;;;;;5082254;28;20037;-75
2021/03/22 07:24:02;;;;;;;0.73;0.65;;;6.20;99.90;;;;;;5067218;28;20036;-75
2021/03/22 07:26:40;;;;;;;4.20;1.38;;;6.20;99.90;;;;;;5067171;28;20025;-74
2021/03/22 07:29:39;;;;;;;9.30;0.93;;;6.20;99.90;;;;;;5067092;28;20033;-75
2021/03/22 07:32:29;;;;;;;0.63;0.50;;;6.20;99.90;;;;;;5077058;28;20032;-75
2021/03/22 07:35:14;;;;;;;0.57;0.32;;;6.10;99.90;;;;;;5084946;28;20032;-76
2021/03/22 07:38:07;;;;;;;0.82;0.32;;;6.10;99.90;;;;;;5066697;28;20373;-74
2021/03/22 07:41:01;;;;;;;2.95;0.75;;;6.20;99.90;;;;;;5077925;28;20029;-73
2021/03/22 07:44:18;;;;;;;2.63;1.02;;;6.30;99.90;;;;;;5086848;28;20024;-76
2021/03/22 07:46:49;;;;;;;9.60;0.77;;;6.50;99.90;;;;;;5084526;28;20111;-76
2021/03/22 07:49:22;;;;;;;0.90;0.50;;;6.70;99.90;;;;;;5086935;28;20389;-75
2021/03/22 07:52:09;;;;;;;1.52;0.60;;;6.80;99.90;;;;;;5085397;28;20028;-75
2021/03/22 07:54:47;;;;;;;7.53;0.80;;;6.80;99.90;;;;;;5085162;28;20032;-75
2021/03/22 07:57:13;;;;;;;0.45;0.40;;;6.80;99.90;;;;;;5085330;28;20385;-74
2021/03/22 07:59:59;;;;;;;0.55;0.47;;;6.80;99.90;;;;;;5086460;28;20108;-74
2021/03/22 08:02:44;;;;;;;3.25;0.50;;;6.80;99.90;;;;;;5086434;28;20066;-76
2021/03/22 08:05:32;;;;;;;2.38;0.60;;;6.70;99.90;;;;;;5086583;28;20145;-75
2021/03/22 08:08:25;;;;;;;0.40;0.30;;;6.70;99.90;;;;;;5080263;28;20017;-76
2021/03/22 08:10:57;;;;;;;9.57;1.35;;;6.70;99.90;;;;;;5068706;28;20028;-77
2021/03/22 08:14:01;;;;;;;4.78;0.98;;;6.80;99.90;;;;;;5082554;28;20024;-76
2021/03/22 08:16:51;;;;;;;0.77;0.50;;;6.80;99.90;;;;;;5085157;28;20033;-77
2021/03/22 08:19:36;;;;;;;1.45;0.70;;;6.90;99.90;;;;;;5067928;28;20037;-76
2021/03/22 08:22:18;;;;;;;11.75;2.33;;;7.00;99.90;;;;;;5084893;28;20033;-76
2021/03/22 08:24:58;;;;;;;5.15;0.30;;;7.20;99.90;;;;;;5086276;28;20059;-76
2021/03/22 08:27:28;;;;;;;0.60;0.20;;;7.60;99.90;;;;;;5072930;28;20040;-74
2021/03/22 08:30:09;;;;;;;3.00;0.75;;;7.70;99.90;;;;;;5065816;28;20040;-77
2021/03/22 08:32:59;;;;;;;1.73;0.65;;;7.70;99.90;;;;;;5084541;28;20033;-75
2021/03/22 08:35:43;;;;;;;0.40;0.40;;;7.70;99.90;;;;;;5072188;28;20374;-76
2021/03/22 08:38:15;;;;;;;0.30;0.10;;;7.70;99.90;;;;;;5065889;28;20481;-76
2021/03/22 08:40:58;;;;;;;2.92;0.32;;;7.70;99.90;;;;;;5081026;28;20035;-76
2021/03/22 08:43:51;;;;;;;2.78;0.73;;;7.70;99.90;;;;;;5082385;28;20560;-76
2021/03/22 08:46:51;;;;;;;0.98;0.52;;;7.60;99.90;;;;;;5085812;28;20032;-75
2021/03/22 08:49:24;;;;;;;2.55;0.38;;;7.50;99.90;;;;;;5075094;28;20049;-76
2021/03/22 08:51:53;;;;;;;2.30;0.80;;;7.50;99.90;;;;;;5065895;28;20039;-75
2021/03/22 08:54:30;;;;;;;0.88;0.20;;;7.50;99.90;;;;;;5065657;28;20351;-75
2021/03/22 08:57:06;;;;;;;0.08;0.08;;;7.50;99.90;;;;;;5065705;28;20049;-74
2021/03/22 08:59:33;;;;;;;0.73;0.22;;;7.60;99.90;;;;;;5063625;28;20028;-75
2021/03/22 09:02:23;;;;;;;0.80;0.38;;;7.70;99.90;;;;;;5064573;28;20070;-74
2021/03/22 09:04:51;;;;;;;0.38;0.20;;;7.70;99.90;;;;;;5063560;28;20028;-76
2021/03/22 09:07:17;;;;;;;0.10;0.08;;;7.60;99.90;;;;;;5067396;28;20032;-75
2021/03/22 09:09:46;;;;;;;0.30;0.20;;;7.50;99.90;;;;;;5079984;28;20041;-74
2021/03/22 09:12:39;;;;;;;0.63;0.30;;;7.50;99.90;;;;;;5070289;28;20041;-71
2021/03/22 09:15:33;;;;;;;0.15;0.15;;;7.40;99.90;;;;;;5063597;28;20119;-74
2021/03/22 09:18:01;;;;;;;3.60;0.73;;;7.40;99.90;;;;;;5079495;28;20029;-75
2021/03/22 09:20:32;;;;;;;1.80;0.60;;;7.30;99.90;;;;;;5075973;28;20052;-75
2021/03/22 09:23:00;;;;;;;5.90;0.40;;;7.30;99.90;;;;;;5084174;28;20024;-76
2021/03/22 09:25:48;;;;;;;0.65;0.30;;;7.30;99.90;;;;;;5080357;28;20032;-78
2021/03/22 09:28:26;;;;;;;0.63;0.22;;;7.40;99.90;;;;;;5065014;28;20032;-76
2021/03/22 09:31:02;;;;;;;4.65;0.68;;;7.60;99.90;;;;;;5064993;28;20039;-75
2021/03/22 09:34:00;;;;;;;0.80;0.45;;;7.80;99.90;;;;;;5064549;28;20025;-75
2021/03/22 09:36:46;;;;;;;1.48;0.55;;;7.90;99.90;;;;;;5068494;28;20059;-76
2021/03/22 09:39:15;;;;;;;6.80;1.15;;;7.90;99.90;;;;;;5074850;28;20041;-76
2021/03/22 09:42:03;;;;;;;5.38;0.80;;;7.90;99.90;;;;;;5080234;28;20859;-78
2021/03/22 09:44:57;;;;;;;2.70;1.35;;;7.90;99.90;;;;;;5079325;28;20120;-76
2021/03/22 09:47:35;;;;;;;1.17;0.67;;;7.90;99.90;;;;;;5055851;28;20036;-77
2021/03/22 09:50:00;;;;;;;2.35;0.98;;;7.90;99.90;;;;;;5066829;28;20295;-74
2021/03/22 09:52:35;;;;;;;6.50;0.98;;;8.00;99.90;;;;;;5077188;28;20059;-76
2021/03/22 09:55:09;;;;;;;1.42;0.80;;;8.20;99.90;;;;;;5068364;28;20052;-74
2021/03/22 09:57:43;;;;;;;2.00;0.70;;;8.30;99.90;;;;;;5074822;28;20064;-76
2021/03/22 10:00:30;;;;;;;6.43;1.00;;;8.30;99.90;;;;;;5070056;28;20037;-78
2021/03/22 10:03:23;;;;;;;2.88;1.25;;;8.30;99.90;;;;;;5072477;28;20085;-76
2021/03/22 10:05:55;;;;;;;8.55;1.13;;;8.30;99.90;;;;;;5069860;28;20032;-75
2021/03/22 10:08:40;;;;;;;1.67;1.08;;;8.20;99.90;;;;;;5077286;28;20070;-76
2021/03/22 10:11:27;;;;;;;1.27;0.55;;;8.10;99.90;;;;;;5073626;28;20037;-76
2021/03/22 10:13:59;;;;;;;1.20;0.50;;;8.10;99.90;;;;;;5077785;28;20440;-78
2021/03/22 10:16:31;;;;;;;4.28;0.90;;;8.00;99.90;;;;;;5069010;28;20044;-76
2021/03/22 10:19:05;;;;;;;3.53;0.82;;;8.10;99.90;;;;;;5077178;28;20533;-76
2021/03/22 10:21:46;;;;;;;1.25;0.75;;;8.30;99.90;;;;;;5078835;28;20227;-75
2021/03/22 10:24:54;;;;;;;1.10;0.47;;;8.40;99.90;;;;;;5076856;28;20029;-76
2021/03/22 10:27:27;;;;;;;2.03;0.70;;;8.40;99.90;;;;;;5075233;28;20469;-76
2021/03/22 10:30:19;;;;;;;5.72;0.90;;;8.50;99.90;;;;;;5079408;28;20412;-76
2021/03/22 10:33:05;;;;;;;2.72;0.90;;;8.50;99.90;;;;;;5075192;28;20025;-76
2021/03/22 10:36:06;;;;;;;1.42;0.60;;;8.50;99.90;;;;;;5086921;28;20080;-74
2021/03/22 10:38:35;;;;;;;1.27;0.80;;;8.40;99.90;;;;;;5020476;28;20029;-75
2021/03/22 10:41:03;;;;;;;2.90;1.42;;;8.40;99.90;;;;;;5068352;28;20021;-76
2021/03/22 10:43:33;;;;;;;2.97;1.10;;;8.50;99.90;;;;;;5080596;28;20048;-75
2021/03/22 10:46:12;;;;;;;2.67;0.52;;;8.60;99.90;;;;;;5086457;28;20365;-75
2021/03/22 10:48:38;;;;;;;2.33;0.70;;;8.70;99.90;;;;;;5081980;28;20041;-76
2021/03/22 10:51:16;;;;;;;0.98;0.60;;;8.70;99.90;;;;;;5066237;28;20074;-75
2021/03/22 10:53:55;;;;;;;0.88;0.40;;;8.90;99.90;;;;;;5066539;28;20017;-75
2021/03/22 10:56:27;;;;;;;0.75;0.57;;;8.80;99.90;;;;;;5066748;28;20029;-77
2021/03/22 10:58:55;;;;;;;1.42;0.52;;;8.90;99.90;;;;;;5066794;28;20363;-75
2021/03/22 11:01:22;;;;;;;10.07;0.98;;;8.90;99.90;;;;;;5066574;28;20027;-76
2021/03/22 11:03:49;;;;;;;1.17;0.73;;;8.80;99.90;;;;;;5067896;28;20021;-78
2021/03/22 11:06:31;;;;;;;2.13;1.10;;;8.70;99.90;;;;;;5066334;28;20476;-76
2021/03/22 11:09:00;;;;;;;3.15;1.08;;;8.50;99.90;;;;;;5067513;28;20037;-76
2021/03/22 11:11:30;;;;;;;1.02;0.90;;;8.40;99.90;;;;;;5066187;28;20025;-76
2021/03/22 11:14:00;;;;;;;2.55;0.90;;;8.40;99.90;;;;;;5067520;28;20021;-77
2021/03/22 11:16:33;;;;;;;10.10;1.27;;;8.20;99.90;;;;;;5067450;28;20037;-76
2021/03/22 11:19:08;;;;;;;2.40;1.05;;;8.20;99.90;;;;;;5066053;28;20025;-76
2021/03/22 11:21:34;;;;;;;3.20;1.10;;;8.20;99.90;;;;;;5067193;28;20037;-75
2021/03/22 11:24:00;;;;;;;1.65;0.98;;;8.20;99.90;;;;;;5067268;28;20060;-78
2021/03/22 11:26:30;;;;;;;10.63;0.65;;;8.20;99.90;;;;;;5066086;28;20025;-74
2021/03/22 11:29:14;;;;;;;2.15;0.75;;;8.10;99.90;;;;;;5084947;28;20400;-74
2021/03/22 11:31:43;;;;;;;0.65;0.63;;;8.20;99.90;;;;;;5067277;28;20025;-75
2021/03/22 11:34:17;;;;;;;2.25;1.45;;;8.30;99.90;;;;;;5085751;28;20025;-74
2021/03/22 11:36:45;;;;;;;3.00;0.82;;;8.30;99.90;;;;;;5085744;28;20097;-77
2021/03/22 11:39:16;;;;;;;3.88;1.15;;;8.40;99.90;;;;;;5062086;28;20036;-76
2021/03/22 11:41:53;;;;;;;5.18;1.58;;;8.40;99.90;;;;;;5047029;28;20021;-75
2021/03/22 11:44:35;;;;;;;3.95;1.40;;;8.40;99.90;;;;;;5045806;28;20070;-74
2021/03/22 11:47:29;;;;;;;3.25;1.95;;;8.40;99.90;;;;;;5046765;28;20029;-74
2021/03/22 11:49:56;;;;;;;1.42;1.00;;;8.40;99.90;;;;;;5046423;28;20037;-76
2021/03/22 11:52:29;;;;;;;1.67;0.70;;;8.50;99.90;;;;;;5062037;28;20117;-74
2021/03/22 11:55:09;;;;;;;3.50;1.67;;;8.80;99.90;;;;;;5046734;28;20041;-75
2021/03/22 11:57:49;;;;;;;2.45;1.05;;;9.00;99.90;;;;;;5046664;28;20033;-76
2021/03/22 12:00:26;;;;;;;3.05;1.40;;;9.10;99.90;;;;;;5045618;28;20033;-75
2021/03/22 12:03:08;;;;;;;3.65;1.42;;;9.20;99.90;;;;;;5050772;28;20037;-76
2021/03/22 12:05:39;;;;;;;4.10;0.93;;;9.10;99.90;;;;;;5065709;28;20029;-75
2021/03/22 12:08:35;;;;;;;1.48;0.80;;;9.20;99.90;;;;;;5064755;28;20115;-75
2021/03/22 12:11:02;;;;;;;1.75;0.93;;;9.20;99.90;;;;;;5065869;28;20025;-74
2021/03/22 12:13:34;;;;;;;4.43;0.90;;;9.10;99.90;;;;;;5066218;28;20029;-78
2021/03/22 12:16:03;;;;;;;2.28;1.25;;;8.90;99.90;;;;;;5060667;28;20028;-77
2021/03/22 12:18:33;;;;;;;3.45;0.82;;;8.90;99.90;;;;;;5045809;28;20505;-75
2021/03/22 12:21:00;;;;;;;4.65;1.30;;;8.90;99.90;;;;;;5044755;28;20049;-74
2021/03/22 12:23:26;;;;;;;0.93;0.63;;;8.90;99.90;;;;;;5045189;28;20433;-74
2021/03/22 12:25:52;;;;;;;2.25;1.02;;;8.90;99.90;;;;;;5045735;28;20389;-75
2021/03/22 12:28:18;;;;;;;2.65;1.15;;;8.90;99.90;;;;;;5045399;28;20112;-73
2021/03/22 12:30:44;;;;;;;0.85;0.45;;;8.90;99.90;;;;;;5045410;28;20040;-75
2021/03/22 12:33:28;;;;;;;3.88;1.35;;;8.90;99.90;;;;;;5044121;28;20036;-73
2021/03/22 12:35:56;;;;;;;7.22;1.23;;;8.90;99.90;;;;;;5045394;28;20052;-74
2021/03/22 12:38:22;;;;;;;9.45;1.48;;;9.00;99.90;;;;;;5044069;28;20036;-76
2021/03/22 12:40:50;;;;;;;3.90;0.90;;;9.10;99.90;;;;;;5062953;28;20030;-74
2021/03/22 12:43:28;;;;;;;1.45;0.75;;;9.20;99.90;;;;;;5045544;28;20025;-73
2021/03/22 12:45:54;;;;;;;1.63;0.80;;;9.30;99.90;;;;;;5045411;28;20040;-75
2021/03/22 12:48:22;;;;;;;4.50;1.40;;;9.30;99.90;;;;;;5062878;28;20029;-74
2021/03/22 12:50:50;;;;;;;2.30;0.82;;;9.20;99.90;;;;;;5063144;28;20507;-74
2021/03/22 12:53:18;;;;;;;4.43;0.90;;;9.20;99.90;;;;;;5064736;28;20084;-74
2021/03/22 12:55:44;;;;;;;0.55;0.38;;;9.20;99.90;;;;;;5047796;28;20527;-74
2021/03/22 12:58:23;;;;;;;1.98;0.50;;;9.20;99.90;;;;;;5044302;28;20371;-74
2021/03/22 13:00:53;;;;;;;2.38;1.23;;;9.20;99.90;;;;;;5043930;28;20043;-74
2021/03/22 13:03:22;;;;;;;0.70;0.50;;;9.20;99.90;;;;;;5045268;28;20025;-74
2021/03/22 13:05:52;;;;;;;1.65;0.95;;;9.20;99.90;;;;;;5045247;28;20036;-74
2021/03/22 13:08:28;;;;;;;1.05;0.77;;;9.10;99.90;;;;;;5044975;28;20041;-75
2021/03/22 13:10:56;;;;;;;1.75;0.68;;;9.10;99.90;;;;;;5045088;28;20075;-77
2021/03/22 13:13:23;;;;;;;0.85;0.40;;;8.90;99.90;;;;;;5052550;28;20029;-74
2021/03/22 13:15:51;;;;;;;3.67;0.85;;;8.90;99.90;;;;;;5049448;28;20036;-78
2021/03/22 13:18:21;;;;;;;5.22;0.82;;;8.60;99.90;;;;;;5052376;28;20037;-76
2021/03/22 13:20:52;;;;;;;1.48;0.70;;;8.40;99.90;;;;;;5042882;28;20049;-76
2021/03/22 13:23:21;;;;;;;6.65;0.93;;;8.20;99.90;;;;;;5045165;28;20108;-76
2021/03/22 13:25:51;;;;;;;2.55;0.63;;;8.10;99.90;;;;;;5043500;28;20025;-77
2021/03/22 13:28:25;;;;;;;4.75;0.85;;;8.10;99.90;;;;;;5043503;28;20053;-75
2021/03/22 13:30:54;;;;;;;5.63;0.82;;;8.10;99.90;;;;;;5044982;28;20025;-77